sensor_id;sensor_type;location;lat;lon;timestamp;temperature;humidity
7720;DHT22;3902;49.474;8.616;2023-04-25T00:01:33;11.20;99.90
7720;DHT22;3902;49.474;8.616;2023-04-25T00:04:01;11.20;99.90
7720;DHT22;3902;49.474;8.616;2023-04-25T00:06:28;11.20;99.90
7720;DHT22;3902;49.474;8.616;2023-04-25T00:08:55;11.20;99.90
7720;DHT22;3902;49.474;8.616;2023-04-25T00:11:22;11.20;99.90
7720;DHT22;3902;49.474;8.616;2023-04-25T00:13:47;11.10;99.90
7720;DHT22;3902;49.474;8.616;2023-04-25T00:16:15;11.10;99.90
7720;DHT22;3902;49.474;8.616;2023-04-25T00:18:42;11.20;99.90
7720;DHT22;3902;49.474;8.616;2023-04-25T00:21:08;11.20;99.90
7720;DHT22;3902;49.474;8.616;2023-04-25T00:23:33;11.20;99.90
7720;DHT22;3902;49.474;8.616;2023-04-25T00:26:01;11.20;99.90
7720;DHT22;3902;49.474;8.616;2023-04-25T00:28:27;11.20;99.90
7720;DHT22;3902;49.474;8.616;2023-04-25T00:30:53;11.20;99.90
7720;DHT22;3902;49.474;8.616;2023-04-25T00:33:18;11.20;99.90
7720;DHT22;3902;49.474;8.616;2023-04-25T00:35:44;11.10;99.90
7720;DHT22;3902;49.474;8.616;2023-04-25T00:38:09;11.10;99.90
7720;DHT22;3902;49.474;8.616;2023-04-25T00:40:35;11.20;99.90
7720;DHT22;3902;49.474;8.616;2023-04-25T00:43:00;11.20;99.90
7720;DHT22;3902;49.474;8.616;2023-04-25T00:45:29;11.10;99.90
7720;DHT22;3902;49.474;8.616;2023-04-25T00:47:55;11.10;99.90
7720;DHT22;3902;49.474;8.616;2023-04-25T00:50:22;11.20;99.90
7720;DHT22;3902;49.474;8.616;2023-04-25T00:52:47;11.20;99.90
7720;DHT22;3902;49.474;8.616;2023-04-25T00:55:13;11.10;99.90
7720;DHT22;3902;49.474;8.616;2023-04-25T00:57:39;11.10;99.90
7720;DHT22;3902;49.474;8.616;2023-04-25T01:00:06;11.10;99.90
7720;DHT22;3902;49.474;8.616;2023-04-25T01:02:33;11.10;99.90
7720;DHT22;3902;49.474;8.616;2023-04-25T01:04:58;11.10;99.90
7720;DHT22;3902;49.474;8.616;2023-04-25T01:07:24;11.10;99.90
7720;DHT22;3902;49.474;8.616;2023-04-25T01:09:51;11.10;99.90
7720;DHT22;3902;49.474;8.616;2023-04-25T01:12:17;11.10;99.90
7720;DHT22;3902;49.474;8.616;2023-04-25T01:14:43;11.20;99.90
7720;DHT22;3902;49.474;8.616;2023-04-25T01:17:09;11.10;99.90
7720;DHT22;3902;49.474;8.616;2023-04-25T01:19:35;11.10;99.90
7720;DHT22;3902;49.474;8.616;2023-04-25T01:22:01;11.10;99.90
7720;DHT22;3902;49.474;8.616;2023-04-25T01:24:26;11.10;99.90
7720;DHT22;3902;49.474;8.616;2023-04-25T01:26:52;11.10;99.90
7720;DHT22;3902;49.474;8.616;2023-04-25T01:29:19;11.10;99.90
7720;DHT22;3902;49.474;8.616;2023-04-25T01:31:46;11.10;99.90
7720;DHT22;3902;49.474;8.616;2023-04-25T01:34:12;11.10;99.90
7720;DHT22;3902;49.474;8.616;2023-04-25T01:36:38;11.20;99.90
7720;DHT22;3902;49.474;8.616;2023-04-25T01:39:03;11.20;99.90
7720;DHT22;3902;49.474;8.616;2023-04-25T01:41:29;11.20;99.90
7720;DHT22;3902;49.474;8.616;2023-04-25T01:43:55;11.10;99.90
7720;DHT22;3902;49.474;8.616;2023-04-25T01:46:21;11.10;99.90
7720;DHT22;3902;49.474;8.616;2023-04-25T01:48:46;11.10;99.90
7720;DHT22;3902;49.474;8.616;2023-04-25T01:51:12;11.10;99.90
7720;DHT22;3902;49.474;8.616;2023-04-25T01:53:39;11.10;99.90
7720;DHT22;3902;49.474;8.616;2023-04-25T01:56:05;11.10;99.90
7720;DHT22;3902;49.474;8.616;2023-04-25T01:58:30;11.10;99.90
7720;DHT22;3902;49.474;8.616;2023-04-25T02:00:56;11.10;99.90
7720;DHT22;3902;49.474;8.616;2023-04-25T02:03:22;11.00;99.90
7720;DHT22;3902;49.474;8.616;2023-04-25T02:05:47;11.00;99.90
7720;DHT22;3902;49.474;8.616;2023-04-25T02:08:13;11.00;99.90
7720;DHT22;3902;49.474;8.616;2023-04-25T02:10:39;11.00;99.90
7720;DHT22;3902;49.474;8.616;2023-04-25T02:13:04;11.00;99.90
7720;DHT22;3902;49.474;8.616;2023-04-25T02:15:30;10.90;99.90
7720;DHT22;3902;49.474;8.616;2023-04-25T02:17:56;10.90;99.90
7720;DHT22;3902;49.474;8.616;2023-04-25T02:20:22;10.90;99.90
7720;DHT22;3902;49.474;8.616;2023-04-25T02:22:49;10.90;99.90
7720;DHT22;3902;49.474;8.616;2023-04-25T02:25:14;11.00;99.90
7720;DHT22;3902;49.474;8.616;2023-04-25T02:27:41;10.90;99.90
7720;DHT22;3902;49.474;8.616;2023-04-25T02:30:08;10.80;99.90
7720;DHT22;3902;49.474;8.616;2023-04-25T02:32:34;10.80;99.90
7720;DHT22;3902;49.474;8.616;2023-04-25T02:35:00;10.80;99.90
7720;DHT22;3902;49.474;8.616;2023-04-25T02:37:32;10.70;99.90
7720;DHT22;3902;49.474;8.616;2023-04-25T02:39:59;10.70;99.90
7720;DHT22;3902;49.474;8.616;2023-04-25T02:42:24;10.70;99.90
7720;DHT22;3902;49.474;8.616;2023-04-25T02:44:50;10.60;99.90
7720;DHT22;3902;49.474;8.616;2023-04-25T02:47:15;10.60;99.90
7720;DHT22;3902;49.474;8.616;2023-04-25T02:49:41;10.70;99.90
7720;DHT22;3902;49.474;8.616;2023-04-25T02:52:06;10.70;99.90
7720;DHT22;3902;49.474;8.616;2023-04-25T02:54:32;10.70;99.90
7720;DHT22;3902;49.474;8.616;2023-04-25T02:56:57;10.70;99.90
7720;DHT22;3902;49.474;8.616;2023-04-25T02:59:23;10.70;99.90
7720;DHT22;3902;49.474;8.616;2023-04-25T03:01:48;10.70;99.90
7720;DHT22;3902;49.474;8.616;2023-04-25T03:04:17;10.70;99.90
7720;DHT22;3902;49.474;8.616;2023-04-25T03:06:44;10.60;99.90
7720;DHT22;3902;49.474;8.616;2023-04-25T03:09:10;10.60;99.90
7720;DHT22;3902;49.474;8.616;2023-04-25T03:11:38;10.60;99.90
7720;DHT22;3902;49.474;8.616;2023-04-25T03:14:04;10.60;99.90
7720;DHT22;3902;49.474;8.616;2023-04-25T03:16:29;10.60;99.90
7720;DHT22;3902;49.474;8.616;2023-04-25T03:18:56;10.60;99.90
7720;DHT22;3902;49.474;8.616;2023-04-25T03:21:22;10.60;99.90
7720;DHT22;3902;49.474;8.616;2023-04-25T03:23:47;10.60;99.90
7720;DHT22;3902;49.474;8.616;2023-04-25T03:26:13;10.60;99.90
7720;DHT22;3902;49.474;8.616;2023-04-25T03:28:38;10.60;99.90
7720;DHT22;3902;49.474;8.616;2023-04-25T03:31:05;10.60;99.90
7720;DHT22;3902;49.474;8.616;2023-04-25T03:33:31;10.60;99.90
7720;DHT22;3902;49.474;8.616;2023-04-25T03:35:56;10.60;99.90
7720;DHT22;3902;49.474;8.616;2023-04-25T03:38:22;10.60;99.90
7720;DHT22;3902;49.474;8.616;2023-04-25T03:40:47;10.60;99.90
7720;DHT22;3902;49.474;8.616;2023-04-25T03:43:13;10.60;99.90
7720;DHT22;3902;49.474;8.616;2023-04-25T03:45:38;10.50;99.90
7720;DHT22;3902;49.474;8.616;2023-04-25T03:48:04;10.60;99.90
7720;DHT22;3902;49.474;8.616;2023-04-25T03:50:29;10.60;99.90
7720;DHT22;3902;49.474;8.616;2023-04-25T03:52:55;10.70;99.90
7720;DHT22;3902;49.474;8.616;2023-04-25T03:55:20;10.60;99.90
7720;DHT22;3902;49.474;8.616;2023-04-25T03:57:46;10.70;99.90
7720;DHT22;3902;49.474;8.616;2023-04-25T04:00:12;10.70;99.90
7720;DHT22;3902;49.474;8.616;2023-04-25T04:02:38;10.70;99.90
7720;DHT22;3902;49.474;8.616;2023-04-25T04:05:04;10.70;99.90
7720;DHT22;3902;49.474;8.616;2023-04-25T04:07:30;10.60;99.90
7720;DHT22;3902;49.474;8.616;2023-04-25T04:09:58;10.70;99.90
7720;DHT22;3902;49.474;8.616;2023-04-25T04:12:23;10.60;99.90
7720;DHT22;3902;49.474;8.616;2023-04-25T04:14:49;10.70;99.90
7720;DHT22;3902;49.474;8.616;2023-04-25T04:17:15;10.70;99.90
7720;DHT22;3902;49.474;8.616;2023-04-25T04:19:40;10.60;99.90
7720;DHT22;3902;49.474;8.616;2023-04-25T04:22:06;10.70;99.90
7720;DHT22;3902;49.474;8.616;2023-04-25T04:24:31;10.60;99.90
7720;DHT22;3902;49.474;8.616;2023-04-25T04:26:58;10.60;99.90
7720;DHT22;3902;49.474;8.616;2023-04-25T04:29:24;10.60;99.90
7720;DHT22;3902;49.474;8.616;2023-04-25T04:31:50;10.60;99.90
7720;DHT22;3902;49.474;8.616;2023-04-25T04:34:17;10.60;99.90
7720;DHT22;3902;49.474;8.616;2023-04-25T04:36:44;10.60;99.90
7720;DHT22;3902;49.474;8.616;2023-04-25T04:39:12;10.60;99.90
7720;DHT22;3902;49.474;8.616;2023-04-25T04:41:38;10.60;99.90
7720;DHT22;3902;49.474;8.616;2023-04-25T04:44:04;10.70;99.90
7720;DHT22;3902;49.474;8.616;2023-04-25T04:46:29;10.70;99.90
7720;DHT22;3902;49.474;8.616;2023-04-25T04:48:57;10.70;99.90
7720;DHT22;3902;49.474;8.616;2023-04-25T04:51:22;10.70;99.90
7720;DHT22;3902;49.474;8.616;2023-04-25T04:53:48;10.60;99.90
7720;DHT22;3902;49.474;8.616;2023-04-25T04:56:13;10.60;99.90
7720;DHT22;3902;49.474;8.616;2023-04-25T04:58:39;10.70;99.90
7720;DHT22;3902;49.474;8.616;2023-04-25T05:01:05;10.70;99.90
7720;DHT22;3902;49.474;8.616;2023-04-25T05:03:31;10.70;99.90
7720;DHT22;3902;49.474;8.616;2023-04-25T05:05:56;10.70;99.90
7720;DHT22;3902;49.474;8.616;2023-04-25T05:08:22;10.70;99.90
7720;DHT22;3902;49.474;8.616;2023-04-25T05:10:47;10.70;99.90
7720;DHT22;3902;49.474;8.616;2023-04-25T05:13:13;10.70;99.90
7720;DHT22;3902;49.474;8.616;2023-04-25T05:15:38;10.60;99.90
7720;DHT22;3902;49.474;8.616;2023-04-25T05:18:04;10.60;99.90
7720;DHT22;3902;49.474;8.616;2023-04-25T05:20:29;10.60;99.90
7720;DHT22;3902;49.474;8.616;2023-04-25T05:22:55;10.60;99.90
7720;DHT22;3902;49.474;8.616;2023-04-25T05:25:20;10.70;99.90
7720;DHT22;3902;49.474;8.616;2023-04-25T05:27:46;10.70;99.90
7720;DHT22;3902;49.474;8.616;2023-04-25T05:30:11;10.70;99.90
7720;DHT22;3902;49.474;8.616;2023-04-25T05:32:37;10.70;99.90
7720;DHT22;3902;49.474;8.616;2023-04-25T05:35:03;10.70;99.90
7720;DHT22;3902;49.474;8.616;2023-04-25T05:37:28;10.70;99.90
7720;DHT22;3902;49.474;8.616;2023-04-25T05:39:56;10.70;99.90
7720;DHT22;3902;49.474;8.616;2023-04-25T05:42:21;10.70;99.90
7720;DHT22;3902;49.474;8.616;2023-04-25T05:44:47;10.80;99.90
7720;DHT22;3902;49.474;8.616;2023-04-25T05:47:12;10.80;99.90
7720;DHT22;3902;49.474;8.616;2023-04-25T05:49:39;10.70;99.90
7720;DHT22;3902;49.474;8.616;2023-04-25T05:52:04;10.80;99.90
7720;DHT22;3902;49.474;8.616;2023-04-25T05:54:30;10.80;99.90
7720;DHT22;3902;49.474;8.616;2023-04-25T05:56:58;10.80;99.90
7720;DHT22;3902;49.474;8.616;2023-04-25T05:59:24;10.80;99.90
7720;DHT22;3902;49.474;8.616;2023-04-25T06:01:50;10.80;99.90
7720;DHT22;3902;49.474;8.616;2023-04-25T06:04:15;10.80;99.90
7720;DHT22;3902;49.474;8.616;2023-04-25T06:06:41;10.80;99.90
7720;DHT22;3902;49.474;8.616;2023-04-25T06:09:06;10.80;99.90
7720;DHT22;3902;49.474;8.616;2023-04-25T06:11:32;10.80;99.90
7720;DHT22;3902;49.474;8.616;2023-04-25T06:13:57;10.80;99.90
7720;DHT22;3902;49.474;8.616;2023-04-25T06:16:23;10.80;99.90
7720;DHT22;3902;49.474;8.616;2023-04-25T06:18:51;10.90;99.90
7720;DHT22;3902;49.474;8.616;2023-04-25T06:21:16;11.00;99.90
7720;DHT22;3902;49.474;8.616;2023-04-25T06:23:42;11.00;99.90
7720;DHT22;3902;49.474;8.616;2023-04-25T06:26:07;11.00;99.90
7720;DHT22;3902;49.474;8.616;2023-04-25T06:28:33;11.00;99.90
7720;DHT22;3902;49.474;8.616;2023-04-25T06:30:58;11.10;99.90
7720;DHT22;3902;49.474;8.616;2023-04-25T06:33:24;11.10;99.90
7720;DHT22;3902;49.474;8.616;2023-04-25T06:35:50;11.10;99.90
7720;DHT22;3902;49.474;8.616;2023-04-25T06:38:15;11.10;99.90
7720;DHT22;3902;49.474;8.616;2023-04-25T06:40:41;11.10;99.90
7720;DHT22;3902;49.474;8.616;2023-04-25T06:43:06;11.10;99.90
7720;DHT22;3902;49.474;8.616;2023-04-25T06:45:32;11.10;99.90
7720;DHT22;3902;49.474;8.616;2023-04-25T06:47:57;11.10;99.90
7720;DHT22;3902;49.474;8.616;2023-04-25T06:50:23;11.10;99.90
7720;DHT22;3902;49.474;8.616;2023-04-25T06:52:48;11.00;99.90
7720;DHT22;3902;49.474;8.616;2023-04-25T06:55:14;11.00;99.90
7720;DHT22;3902;49.474;8.616;2023-04-25T06:57:39;11.00;99.90
7720;DHT22;3902;49.474;8.616;2023-04-25T07:00:05;11.10;99.90
7720;DHT22;3902;49.474;8.616;2023-04-25T07:02:34;11.10;99.90
7720;DHT22;3902;49.474;8.616;2023-04-25T07:04:59;11.10;99.90
7720;DHT22;3902;49.474;8.616;2023-04-25T07:07:26;11.00;99.90
7720;DHT22;3902;49.474;8.616;2023-04-25T07:09:51;11.00;99.90
7720;DHT22;3902;49.474;8.616;2023-04-25T07:12:17;11.00;99.90
7720;DHT22;3902;49.474;8.616;2023-04-25T07:14:42;10.90;99.90
7720;DHT22;3902;49.474;8.616;2023-04-25T07:17:08;11.00;99.90
7720;DHT22;3902;49.474;8.616;2023-04-25T07:19:34;11.00;99.90
7720;DHT22;3902;49.474;8.616;2023-04-25T07:21:59;11.00;99.90
7720;DHT22;3902;49.474;8.616;2023-04-25T07:24:25;11.10;99.90
7720;DHT22;3902;49.474;8.616;2023-04-25T07:26:51;11.10;99.90
7720;DHT22;3902;49.474;8.616;2023-04-25T07:29:17;11.10;99.90
7720;DHT22;3902;49.474;8.616;2023-04-25T07:31:42;11.20;99.90
7720;DHT22;3902;49.474;8.616;2023-04-25T07:34:08;11.20;99.90
7720;DHT22;3902;49.474;8.616;2023-04-25T07:36:33;11.10;99.90
7720;DHT22;3902;49.474;8.616;2023-04-25T07:38:59;11.20;99.90
7720;DHT22;3902;49.474;8.616;2023-04-25T07:41:24;11.20;99.90
7720;DHT22;3902;49.474;8.616;2023-04-25T07:43:50;11.20;99.90
7720;DHT22;3902;49.474;8.616;2023-04-25T07:46:15;11.20;99.90
7720;DHT22;3902;49.474;8.616;2023-04-25T07:48:41;11.20;99.90
7720;DHT22;3902;49.474;8.616;2023-04-25T07:51:06;11.20;99.90
7720;DHT22;3902;49.474;8.616;2023-04-25T07:53:32;11.20;99.90
7720;DHT22;3902;49.474;8.616;2023-04-25T07:56:00;11.20;99.90
7720;DHT22;3902;49.474;8.616;2023-04-25T07:58:25;11.20;99.90
7720;DHT22;3902;49.474;8.616;2023-04-25T08:00:51;11.30;99.90
7720;DHT22;3902;49.474;8.616;2023-04-25T08:03:16;11.30;99.90
7720;DHT22;3902;49.474;8.616;2023-04-25T08:05:42;11.30;99.90
7720;DHT22;3902;49.474;8.616;2023-04-25T08:08:07;11.30;99.90
7720;DHT22;3902;49.474;8.616;2023-04-25T08:10:33;11.40;99.90
7720;DHT22;3902;49.474;8.616;2023-04-25T08:12:59;11.40;99.90
7720;DHT22;3902;49.474;8.616;2023-04-25T08:15:25;11.40;99.90
7720;DHT22;3902;49.474;8.616;2023-04-25T08:17:51;11.50;99.90
7720;DHT22;3902;49.474;8.616;2023-04-25T08:20:17;11.50;99.90
7720;DHT22;3902;49.474;8.616;2023-04-25T08:22:42;11.50;99.90
7720;DHT22;3902;49.474;8.616;2023-04-25T08:25:08;11.60;99.90
7720;DHT22;3902;49.474;8.616;2023-04-25T08:27:34;11.60;99.90
7720;DHT22;3902;49.474;8.616;2023-04-25T08:30:00;11.80;99.90
7720;DHT22;3902;49.474;8.616;2023-04-25T08:32:25;11.80;99.90
7720;DHT22;3902;49.474;8.616;2023-04-25T08:34:51;11.90;99.90
7720;DHT22;3902;49.474;8.616;2023-04-25T08:37:19;12.00;99.90
7720;DHT22;3902;49.474;8.616;2023-04-25T08:39:45;12.00;99.90
7720;DHT22;3902;49.474;8.616;2023-04-25T08:42:12;12.10;99.90
7720;DHT22;3902;49.474;8.616;2023-04-25T08:44:37;12.00;99.90
7720;DHT22;3902;49.474;8.616;2023-04-25T08:47:04;12.00;99.90
7720;DHT22;3902;49.474;8.616;2023-04-25T08:49:33;12.10;99.90
7720;DHT22;3902;49.474;8.616;2023-04-25T08:52:01;12.20;99.90
7720;DHT22;3902;49.474;8.616;2023-04-25T08:54:28;12.30;99.90
7720;DHT22;3902;49.474;8.616;2023-04-25T08:56:54;12.40;99.90
7720;DHT22;3902;49.474;8.616;2023-04-25T08:59:22;12.40;99.90
7720;DHT22;3902;49.474;8.616;2023-04-25T09:01:49;12.50;99.90
7720;DHT22;3902;49.474;8.616;2023-04-25T09:04:15;12.40;99.90
7720;DHT22;3902;49.474;8.616;2023-04-25T09:06:41;12.40;99.90
7720;DHT22;3902;49.474;8.616;2023-04-25T09:09:08;12.50;99.90
7720;DHT22;3902;49.474;8.616;2023-04-25T09:11:36;12.50;99.90
7720;DHT22;3902;49.474;8.616;2023-04-25T09:19:28;12.80;99.90
7720;DHT22;3902;49.474;8.616;2023-04-25T09:21:55;12.90;99.90
7720;DHT22;3902;49.474;8.616;2023-04-25T09:24:44;13.00;99.90
7720;DHT22;3902;49.474;8.616;2023-04-25T09:27:13;13.10;99.90
7720;DHT22;3902;49.474;8.616;2023-04-25T09:29:42;13.20;99.90
7720;DHT22;3902;49.474;8.616;2023-04-25T09:32:22;13.30;99.90
7720;DHT22;3902;49.474;8.616;2023-04-25T09:34:52;13.40;99.90
7720;DHT22;3902;49.474;8.616;2023-04-25T09:37:20;13.50;99.90
7720;DHT22;3902;49.474;8.616;2023-04-25T09:39:47;13.60;99.90
7720;DHT22;3902;49.474;8.616;2023-04-25T09:42:14;13.60;99.90
7720;DHT22;3902;49.474;8.616;2023-04-25T09:44:43;13.70;99.90
7720;DHT22;3902;49.474;8.616;2023-04-25T09:47:13;13.80;99.90
7720;DHT22;3902;49.474;8.616;2023-04-25T09:49:40;13.80;99.90
7720;DHT22;3902;49.474;8.616;2023-04-25T09:52:10;14.00;99.90
7720;DHT22;3902;49.474;8.616;2023-04-25T09:54:38;14.00;99.90
7720;DHT22;3902;49.474;8.616;2023-04-25T09:57:11;14.10;99.90
7720;DHT22;3902;49.474;8.616;2023-04-25T09:59:39;14.20;99.90
7720;DHT22;3902;49.474;8.616;2023-04-25T10:02:08;14.10;99.90
7720;DHT22;3902;49.474;8.616;2023-04-25T10:04:35;14.10;99.90
7720;DHT22;3902;49.474;8.616;2023-04-25T10:07:03;14.10;99.90
7720;DHT22;3902;49.474;8.616;2023-04-25T10:09:31;14.00;99.90
7720;DHT22;3902;49.474;8.616;2023-04-25T10:11:59;14.20;99.90
7720;DHT22;3902;49.474;8.616;2023-04-25T10:14:26;14.20;99.90
7720;DHT22;3902;49.474;8.616;2023-04-25T10:16:53;14.30;99.90
7720;DHT22;3902;49.474;8.616;2023-04-25T10:19:22;14.50;99.90
7720;DHT22;3902;49.474;8.616;2023-04-25T10:22:03;14.40;99.90
7720;DHT22;3902;49.474;8.616;2023-04-25T10:24:30;14.40;99.90
7720;DHT22;3902;49.474;8.616;2023-04-25T10:26:57;14.50;99.90
7720;DHT22;3902;49.474;8.616;2023-04-25T10:29:25;14.50;99.90
7720;DHT22;3902;49.474;8.616;2023-04-25T10:31:51;14.60;99.90
7720;DHT22;3902;49.474;8.616;2023-04-25T10:34:17;14.60;99.90
7720;DHT22;3902;49.474;8.616;2023-04-25T10:36:49;14.60;99.90
7720;DHT22;3902;49.474;8.616;2023-04-25T10:39:22;14.70;99.90
7720;DHT22;3902;49.474;8.616;2023-04-25T10:41:58;14.60;99.90
7720;DHT22;3902;49.474;8.616;2023-04-25T10:44:27;14.70;99.90
7720;DHT22;3902;49.474;8.616;2023-04-25T10:46:55;14.80;99.90
7720;DHT22;3902;49.474;8.616;2023-04-25T10:49:35;14.80;99.90
7720;DHT22;3902;49.474;8.616;2023-04-25T10:52:18;14.50;99.90
7720;DHT22;3902;49.474;8.616;2023-04-25T10:54:49;14.60;99.90
7720;DHT22;3902;49.474;8.616;2023-04-25T11:00:09;14.50;99.90
7720;DHT22;3902;49.474;8.616;2023-04-25T11:02:52;14.80;99.90
7720;DHT22;3902;49.474;8.616;2023-04-25T11:05:33;14.90;99.90
7720;DHT22;3902;49.474;8.616;2023-04-25T11:07:59;15.10;99.90
7720;DHT22;3902;49.474;8.616;2023-04-25T11:10:26;15.10;99.90
7720;DHT22;3902;49.474;8.616;2023-04-25T11:12:52;15.00;99.90
7720;DHT22;3902;49.474;8.616;2023-04-25T11:15:17;14.90;99.90
7720;DHT22;3902;49.474;8.616;2023-04-25T11:17:43;14.80;99.90
7720;DHT22;3902;49.474;8.616;2023-04-25T11:20:11;14.40;99.90
7720;DHT22;3902;49.474;8.616;2023-04-25T11:22:40;14.50;99.90
7720;DHT22;3902;49.474;8.616;2023-04-25T11:25:10;14.40;99.90
7720;DHT22;3902;49.474;8.616;2023-04-25T11:27:59;14.20;99.90
7720;DHT22;3902;49.474;8.616;2023-04-25T11:30:27;14.00;99.90
7720;DHT22;3902;49.474;8.616;2023-04-25T11:32:54;13.80;99.90
7720;DHT22;3902;49.474;8.616;2023-04-25T11:35:20;13.80;99.90
7720;DHT22;3902;49.474;8.616;2023-04-25T11:37:48;13.70;99.90
7720;DHT22;3902;49.474;8.616;2023-04-25T11:40:14;13.80;99.90
7720;DHT22;3902;49.474;8.616;2023-04-25T11:42:43;13.80;99.90
7720;DHT22;3902;49.474;8.616;2023-04-25T11:45:09;13.90;99.90
7720;DHT22;3902;49.474;8.616;2023-04-25T11:47:36;13.90;99.90
7720;DHT22;3902;49.474;8.616;2023-04-25T11:50:04;13.80;99.90
7720;DHT22;3902;49.474;8.616;2023-04-25T11:52:40;14.00;99.90
7720;DHT22;3902;49.474;8.616;2023-04-25T11:55:13;14.00;99.90
7720;DHT22;3902;49.474;8.616;2023-04-25T11:57:39;14.00;99.90
7720;DHT22;3902;49.474;8.616;2023-04-25T12:00:15;14.20;99.90
7720;DHT22;3902;49.474;8.616;2023-04-25T12:02:47;14.20;99.90
7720;DHT22;3902;49.474;8.616;2023-04-25T12:05:14;14.60;99.90
7720;DHT22;3902;49.474;8.616;2023-04-25T12:07:41;14.80;99.90
7720;DHT22;3902;49.474;8.616;2023-04-25T12:10:12;14.90;99.90
7720;DHT22;3902;49.474;8.616;2023-04-25T12:12:41;15.00;99.90
7720;DHT22;3902;49.474;8.616;2023-04-25T12:15:16;15.10;99.90
7720;DHT22;3902;49.474;8.616;2023-04-25T12:17:48;15.10;99.90
7720;DHT22;3902;49.474;8.616;2023-04-25T12:20:23;15.10;99.90
7720;DHT22;3902;49.474;8.616;2023-04-25T12:22:50;15.00;99.90
7720;DHT22;3902;49.474;8.616;2023-04-25T12:25:37;14.90;99.90
7720;DHT22;3902;49.474;8.616;2023-04-25T12:28:21;14.80;99.90
7720;DHT22;3902;49.474;8.616;2023-04-25T12:30:55;14.70;99.90
7720;DHT22;3902;49.474;8.616;2023-04-25T12:33:22;14.60;99.90
7720;DHT22;3902;49.474;8.616;2023-04-25T12:35:47;14.50;99.90
7720;DHT22;3902;49.474;8.616;2023-04-25T12:38:27;14.20;99.90
7720;DHT22;3902;49.474;8.616;2023-04-25T12:40:54;14.20;99.90
7720;DHT22;3902;49.474;8.616;2023-04-25T12:43:20;14.00;99.90
7720;DHT22;3902;49.474;8.616;2023-04-25T12:45:49;13.90;99.90
7720;DHT22;3902;49.474;8.616;2023-04-25T12:48:16;14.00;99.90
7720;DHT22;3902;49.474;8.616;2023-04-25T12:50:42;14.10;99.90
7720;DHT22;3902;49.474;8.616;2023-04-25T12:53:08;14.20;99.90
7720;DHT22;3902;49.474;8.616;2023-04-25T12:55:33;14.20;99.90
7720;DHT22;3902;49.474;8.616;2023-04-25T12:57:59;14.20;99.90
7720;DHT22;3902;49.474;8.616;2023-04-25T13:00:24;14.40;99.90
7720;DHT22;3902;49.474;8.616;2023-04-25T13:02:51;14.40;99.90
7720;DHT22;3902;49.474;8.616;2023-04-25T13:05:17;14.40;99.90
7720;DHT22;3902;49.474;8.616;2023-04-25T13:07:42;14.50;99.90
7720;DHT22;3902;49.474;8.616;2023-04-25T13:10:08;14.50;99.90
7720;DHT22;3902;49.474;8.616;2023-04-25T13:12:33;14.60;99.90
7720;DHT22;3902;49.474;8.616;2023-04-25T13:14:59;14.70;99.90
7720;DHT22;3902;49.474;8.616;2023-04-25T13:17:24;14.70;99.90
7720;DHT22;3902;49.474;8.616;2023-04-25T13:19:50;14.60;99.90
7720;DHT22;3902;49.474;8.616;2023-04-25T13:22:16;14.70;99.90
7720;DHT22;3902;49.474;8.616;2023-04-25T13:24:45;14.80;99.90
7720;DHT22;3902;49.474;8.616;2023-04-25T13:27:11;14.80;99.90
7720;DHT22;3902;49.474;8.616;2023-04-25T13:29:37;14.70;99.90
7720;DHT22;3902;49.474;8.616;2023-04-25T13:32:04;14.80;99.90
7720;DHT22;3902;49.474;8.616;2023-04-25T13:34:30;14.80;99.90
7720;DHT22;3902;49.474;8.616;2023-04-25T13:36:56;14.90;99.90
7720;DHT22;3902;49.474;8.616;2023-04-25T13:39:21;14.90;99.90
7720;DHT22;3902;49.474;8.616;2023-04-25T13:41:47;14.80;99.90
7720;DHT22;3902;49.474;8.616;2023-04-25T13:44:13;14.80;99.90
7720;DHT22;3902;49.474;8.616;2023-04-25T13:46:38;14.70;99.90
7720;DHT22;3902;49.474;8.616;2023-04-25T13:49:04;14.70;99.90
7720;DHT22;3902;49.474;8.616;2023-04-25T13:51:30;14.70;99.90
7720;DHT22;3902;49.474;8.616;2023-04-25T13:53:56;14.70;99.90
7720;DHT22;3902;49.474;8.616;2023-04-25T13:56:21;14.60;99.90
7720;DHT22;3902;49.474;8.616;2023-04-25T13:58:48;14.70;99.90
7720;DHT22;3902;49.474;8.616;2023-04-25T14:01:14;14.60;99.90
7720;DHT22;3902;49.474;8.616;2023-04-25T14:03:40;14.60;99.90
7720;DHT22;3902;49.474;8.616;2023-04-25T14:06:06;14.60;99.90
7720;DHT22;3902;49.474;8.616;2023-04-25T14:08:33;14.50;99.90
7720;DHT22;3902;49.474;8.616;2023-04-25T14:10:59;14.40;99.90
7720;DHT22;3902;49.474;8.616;2023-04-25T14:13:25;14.40;99.90
7720;DHT22;3902;49.474;8.616;2023-04-25T14:15:50;14.20;99.90
7720;DHT22;3902;49.474;8.616;2023-04-25T14:18:17;14.20;99.90
7720;DHT22;3902;49.474;8.616;2023-04-25T14:20:42;14.20;99.90
7720;DHT22;3902;49.474;8.616;2023-04-25T14:23:08;14.20;99.90
7720;DHT22;3902;49.474;8.616;2023-04-25T14:25:34;14.20;99.90
7720;DHT22;3902;49.474;8.616;2023-04-25T14:28:00;14.20;99.90
7720;DHT22;3902;49.474;8.616;2023-04-25T14:30:26;14.00;99.90
7720;DHT22;3902;49.474;8.616;2023-04-25T14:32:51;14.10;99.90
7720;DHT22;3902;49.474;8.616;2023-04-25T14:35:17;14.20;99.90
7720;DHT22;3902;49.474;8.616;2023-04-25T14:37:43;14.10;99.90
7720;DHT22;3902;49.474;8.616;2023-04-25T14:40:09;14.10;99.90
7720;DHT22;3902;49.474;8.616;2023-04-25T14:42:36;14.00;99.90
7720;DHT22;3902;49.474;8.616;2023-04-25T14:45:06;14.00;99.90
7720;DHT22;3902;49.474;8.616;2023-04-25T14:47:38;14.00;99.90
7720;DHT22;3902;49.474;8.616;2023-04-25T14:50:05;14.00;99.90
7720;DHT22;3902;49.474;8.616;2023-04-25T14:52:31;14.00;99.90
7720;DHT22;3902;49.474;8.616;2023-04-25T14:54:56;14.00;99.90
7720;DHT22;3902;49.474;8.616;2023-04-25T14:57:22;14.00;99.90
7720;DHT22;3902;49.474;8.616;2023-04-25T14:59:47;13.90;99.90
7720;DHT22;3902;49.474;8.616;2023-04-25T15:02:13;13.80;99.90
7720;DHT22;3902;49.474;8.616;2023-04-25T15:04:38;13.80;99.90
7720;DHT22;3902;49.474;8.616;2023-04-25T15:07:04;13.80;99.90
7720;DHT22;3902;49.474;8.616;2023-04-25T15:09:30;13.80;99.90
7720;DHT22;3902;49.474;8.616;2023-04-25T15:11:56;13.80;99.90
7720;DHT22;3902;49.474;8.616;2023-04-25T15:14:22;13.80;99.90
7720;DHT22;3902;49.474;8.616;2023-04-25T15:16:47;13.70;99.90
7720;DHT22;3902;49.474;8.616;2023-04-25T15:19:13;13.80;99.90
7720;DHT22;3902;49.474;8.616;2023-04-25T15:21:39;13.80;99.90
7720;DHT22;3902;49.474;8.616;2023-04-25T15:24:04;13.90;99.90
7720;DHT22;3902;49.474;8.616;2023-04-25T15:26:30;14.00;99.90
7720;DHT22;3902;49.474;8.616;2023-04-25T15:28:56;14.20;99.90
7720;DHT22;3902;49.474;8.616;2023-04-25T15:31:22;14.40;99.90
7720;DHT22;3902;49.474;8.616;2023-04-25T15:33:47;14.60;99.90
7720;DHT22;3902;49.474;8.616;2023-04-25T15:36:13;14.80;99.90
7720;DHT22;3902;49.474;8.616;2023-04-25T15:38:41;14.90;99.90
7720;DHT22;3902;49.474;8.616;2023-04-25T15:41:07;15.00;99.90
7720;DHT22;3902;49.474;8.616;2023-04-25T15:43:32;15.00;99.90
7720;DHT22;3902;49.474;8.616;2023-04-25T15:46:00;15.10;99.90
7720;DHT22;3902;49.474;8.616;2023-04-25T15:48:26;15.10;99.90
7720;DHT22;3902;49.474;8.616;2023-04-25T15:50:52;15.10;99.90
7720;DHT22;3902;49.474;8.616;2023-04-25T15:53:17;15.10;99.90
7720;DHT22;3902;49.474;8.616;2023-04-25T15:55:43;15.00;99.90
7720;DHT22;3902;49.474;8.616;2023-04-25T15:58:08;14.80;99.90
7720;DHT22;3902;49.474;8.616;2023-04-25T16:00:34;14.70;99.90
7720;DHT22;3902;49.474;8.616;2023-04-25T16:03:02;14.70;99.90
7720;DHT22;3902;49.474;8.616;2023-04-25T16:05:28;14.70;99.90
7720;DHT22;3902;49.474;8.616;2023-04-25T16:07:54;14.60;99.90